sensor_id;sensor_type;location;lat;lon;timestamp;P1;durP1;ratioP1;P2;durP2;ratioP2
69822;SDS011;57119;52.516;13.508;2022-08-21T00:01:19;12.30;;;7.97;;
69822;SDS011;57119;52.516;13.508;2022-08-21T00:03:46;12.37;;;7.70;;
69822;SDS011;57119;52.516;13.508;2022-08-21T00:06:12;12.98;;;6.82;;
69822;SDS011;57119;52.516;13.508;2022-08-21T00:08:37;12.93;;;8.80;;
69822;SDS011;57119;52.516;13.508;2022-08-21T00:11:03;12.97;;;9.33;;
69822;SDS011;57119;52.516;13.508;2022-08-21T00:13:29;14.60;;;8.20;;
69822;SDS011;57119;52.516;13.508;2022-08-21T00:15:55;16.03;;;8.37;;
69822;SDS011;57119;52.516;13.508;2022-08-21T00:18:20;13.60;;;8.80;;
69822;SDS011;57119;52.516;13.508;2022-08-21T00:20:46;12.80;;;9.02;;
69822;SDS011;57119;52.516;13.508;2022-08-21T00:23:12;11.15;;;8.20;;
69822;SDS011;57119;52.516;13.508;2022-08-21T00:25:39;12.88;;;9.50;;
69822;SDS011;57119;52.516;13.508;2022-08-21T00:28:06;15.80;;;11.23;;
69822;SDS011;57119;52.516;13.508;2022-08-21T00:30:31;13.67;;;8.67;;
69822;SDS011;57119;52.516;13.508;2022-08-21T00:32:57;12.73;;;8.03;;
69822;SDS011;57119;52.516;13.508;2022-08-21T00:35:26;10.77;;;7.32;;
69822;SDS011;57119;52.516;13.508;2022-08-21T00:37:54;16.85;;;9.25;;
69822;SDS011;57119;52.516;13.508;2022-08-21T00:40:21;15.55;;;10.38;;
69822;SDS011;57119;52.516;13.508;2022-08-21T00:42:55;14.03;;;8.30;;
69822;SDS011;57119;52.516;13.508;2022-08-21T00:45:21;11.30;;;7.60;;
69822;SDS011;57119;52.516;13.508;2022-08-21T00:47:47;15.30;;;8.20;;
69822;SDS011;57119;52.516;13.508;2022-08-21T00:50:13;12.65;;;7.88;;
69822;SDS011;57119;52.516;13.508;2022-08-21T00:52:38;17.77;;;9.00;;
69822;SDS011;57119;52.516;13.508;2022-08-21T00:55:05;11.48;;;7.95;;
69822;SDS011;57119;52.516;13.508;2022-08-21T00:57:34;11.90;;;7.70;;
69822;SDS011;57119;52.516;13.508;2022-08-21T01:00:05;12.95;;;7.28;;
69822;SDS011;57119;52.516;13.508;2022-08-21T01:02:33;14.67;;;9.87;;
69822;SDS011;57119;52.516;13.508;2022-08-21T01:04:58;11.82;;;7.97;;
69822;SDS011;57119;52.516;13.508;2022-08-21T01:07:24;11.37;;;7.07;;
69822;SDS011;57119;52.516;13.508;2022-08-21T01:09:50;9.73;;;7.00;;
69822;SDS011;57119;52.516;13.508;2022-08-21T01:12:16;10.73;;;6.85;;
69822;SDS011;57119;52.516;13.508;2022-08-21T01:14:42;10.88;;;6.93;;
69822;SDS011;57119;52.516;13.508;2022-08-21T01:17:09;11.48;;;6.60;;
69822;SDS011;57119;52.516;13.508;2022-08-21T01:19:37;12.15;;;6.88;;
69822;SDS011;57119;52.516;13.508;2022-08-21T01:22:03;14.20;;;8.63;;
69822;SDS011;57119;52.516;13.508;2022-08-21T01:24:29;12.88;;;6.95;;
69822;SDS011;57119;52.516;13.508;2022-08-21T01:26:56;9.63;;;6.90;;
69822;SDS011;57119;52.516;13.508;2022-08-21T01:29:39;12.32;;;7.22;;
69822;SDS011;57119;52.516;13.508;2022-08-21T01:32:12;12.27;;;7.63;;
69822;SDS011;57119;52.516;13.508;2022-08-21T01:34:39;11.52;;;6.43;;
69822;SDS011;57119;52.516;13.508;2022-08-21T01:37:06;12.93;;;7.35;;
69822;SDS011;57119;52.516;13.508;2022-08-21T01:39:33;10.50;;;6.82;;
69822;SDS011;57119;52.516;13.508;2022-08-21T01:41:59;11.33;;;7.50;;
69822;SDS011;57119;52.516;13.508;2022-08-21T01:44:25;10.32;;;7.13;;
69822;SDS011;57119;52.516;13.508;2022-08-21T01:46:51;11.97;;;6.17;;
69822;SDS011;57119;52.516;13.508;2022-08-21T01:49:17;12.13;;;8.00;;
69822;SDS011;57119;52.516;13.508;2022-08-21T01:51:43;10.75;;;6.78;;
69822;SDS011;57119;52.516;13.508;2022-08-21T01:54:08;9.27;;;5.93;;
69822;SDS011;57119;52.516;13.508;2022-08-21T01:56:38;10.37;;;5.67;;
69822;SDS011;57119;52.516;13.508;2022-08-21T01:59:05;12.18;;;6.18;;
69822;SDS011;57119;52.516;13.508;2022-08-21T02:01:31;12.43;;;6.53;;
69822;SDS011;57119;52.516;13.508;2022-08-21T02:03:56;10.97;;;5.63;;
69822;SDS011;57119;52.516;13.508;2022-08-21T02:06:23;12.48;;;5.53;;
69822;SDS011;57119;52.516;13.508;2022-08-21T02:08:48;9.60;;;6.10;;
69822;SDS011;57119;52.516;13.508;2022-08-21T02:11:15;10.43;;;6.70;;
69822;SDS011;57119;52.516;13.508;2022-08-21T02:13:41;9.20;;;6.20;;
69822;SDS011;57119;52.516;13.508;2022-08-21T02:16:06;10.43;;;5.68;;
69822;SDS011;57119;52.516;13.508;2022-08-21T02:18:32;13.52;;;6.68;;
69822;SDS011;57119;52.516;13.508;2022-08-21T02:20:58;10.07;;;6.23;;
69822;SDS011;57119;52.516;13.508;2022-08-21T02:23:24;11.13;;;6.60;;
69822;SDS011;57119;52.516;13.508;2022-08-21T02:25:49;9.85;;;6.35;;
69822;SDS011;57119;52.516;13.508;2022-08-21T02:28:15;12.57;;;6.20;;
69822;SDS011;57119;52.516;13.508;2022-08-21T02:30:42;12.63;;;6.07;;
69822;SDS011;57119;52.516;13.508;2022-08-21T02:33:09;12.70;;;6.40;;
69822;SDS011;57119;52.516;13.508;2022-08-21T02:35:36;10.65;;;6.13;;
69822;SDS011;57119;52.516;13.508;2022-08-21T02:38:04;10.68;;;6.53;;
69822;SDS011;57119;52.516;13.508;2022-08-21T02:40:32;9.52;;;6.00;;
69822;SDS011;57119;52.516;13.508;2022-08-21T02:43:00;11.93;;;5.85;;
69822;SDS011;57119;52.516;13.508;2022-08-21T02:45:27;10.00;;;6.40;;
69822;SDS011;57119;52.516;13.508;2022-08-21T02:47:55;10.10;;;5.97;;
69822;SDS011;57119;52.516;13.508;2022-08-21T02:50:24;13.88;;;6.35;;
69822;SDS011;57119;52.516;13.508;2022-08-21T02:52:51;11.00;;;5.93;;
69822;SDS011;57119;52.516;13.508;2022-08-21T02:55:20;12.05;;;6.45;;
69822;SDS011;57119;52.516;13.508;2022-08-21T02:57:46;10.10;;;5.97;;
69822;SDS011;57119;52.516;13.508;2022-08-21T03:00:12;10.20;;;5.60;;
69822;SDS011;57119;52.516;13.508;2022-08-21T03:02:38;13.00;;;5.88;;
69822;SDS011;57119;52.516;13.508;2022-08-21T03:05:05;11.20;;;5.93;;
69822;SDS011;57119;52.516;13.508;2022-08-21T03:07:31;9.90;;;7.27;;
69822;SDS011;57119;52.516;13.508;2022-08-21T03:09:57;10.83;;;5.70;;
69822;SDS011;57119;52.516;13.508;2022-08-21T03:12:22;13.10;;;5.00;;
69822;SDS011;57119;52.516;13.508;2022-08-21T03:14:48;8.27;;;5.10;;
69822;SDS011;57119;52.516;13.508;2022-08-21T03:17:14;10.45;;;4.82;;
69822;SDS011;57119;52.516;13.508;2022-08-21T03:19:39;9.03;;;4.97;;
69822;SDS011;57119;52.516;13.508;2022-08-21T03:22:05;7.60;;;4.70;;
69822;SDS011;57119;52.516;13.508;2022-08-21T03:24:30;11.63;;;4.68;;
69822;SDS011;57119;52.516;13.508;2022-08-21T03:26:56;9.50;;;4.97;;
69822;SDS011;57119;52.516;13.508;2022-08-21T03:29:21;9.17;;;5.27;;
69822;SDS011;57119;52.516;13.508;2022-08-21T03:31:47;8.70;;;4.75;;
69822;SDS011;57119;52.516;13.508;2022-08-21T03:34:12;8.27;;;4.43;;
69822;SDS011;57119;52.516;13.508;2022-08-21T03:36:38;10.63;;;5.00;;
69822;SDS011;57119;52.516;13.508;2022-08-21T03:39:04;9.40;;;4.60;;
69822;SDS011;57119;52.516;13.508;2022-08-21T03:41:29;10.10;;;5.07;;
69822;SDS011;57119;52.516;13.508;2022-08-21T03:43:54;9.43;;;4.83;;
69822;SDS011;57119;52.516;13.508;2022-08-21T03:46:20;10.03;;;4.53;;
69822;SDS011;57119;52.516;13.508;2022-08-21T03:48:45;8.93;;;4.87;;
69822;SDS011;57119;52.516;13.508;2022-08-21T03:51:11;11.20;;;5.30;;
69822;SDS011;57119;52.516;13.508;2022-08-21T03:53:37;8.55;;;4.35;;
69822;SDS011;57119;52.516;13.508;2022-08-21T03:56:03;10.37;;;4.50;;
69822;SDS011;57119;52.516;13.508;2022-08-21T03:58:29;8.65;;;4.65;;
69822;SDS011;57119;52.516;13.508;2022-08-21T04:00:56;9.93;;;4.27;;
69822;SDS011;57119;52.516;13.508;2022-08-21T04:03:23;11.43;;;5.43;;
69822;SDS011;57119;52.516;13.508;2022-08-21T04:05:49;11.65;;;4.43;;
69822;SDS011;57119;52.516;13.508;2022-08-21T04:08:15;12.70;;;4.73;;
69822;SDS011;57119;52.516;13.508;2022-08-21T04:10:42;12.60;;;4.60;;
69822;SDS011;57119;52.516;13.508;2022-08-21T04:13:09;10.13;;;4.70;;
69822;SDS011;57119;52.516;13.508;2022-08-21T04:15:35;11.10;;;4.47;;
69822;SDS011;57119;52.516;13.508;2022-08-21T04:18:02;8.10;;;4.15;;
69822;SDS011;57119;52.516;13.508;2022-08-21T04:20:28;9.87;;;4.70;;
69822;SDS011;57119;52.516;13.508;2022-08-21T04:22:54;9.10;;;4.68;;
69822;SDS011;57119;52.516;13.508;2022-08-21T04:25:21;10.73;;;4.45;;
69822;SDS011;57119;52.516;13.508;2022-08-21T04:27:48;11.63;;;5.53;;
69822;SDS011;57119;52.516;13.508;2022-08-21T04:30:13;8.97;;;4.23;;
69822;SDS011;57119;52.516;13.508;2022-08-21T04:32:44;8.45;;;3.83;;
69822;SDS011;57119;52.516;13.508;2022-08-21T04:35:11;9.90;;;4.03;;
69822;SDS011;57119;52.516;13.508;2022-08-21T04:37:37;8.70;;;4.40;;
69822;SDS011;57119;52.516;13.508;2022-08-21T04:40:02;7.33;;;3.60;;
69822;SDS011;57119;52.516;13.508;2022-08-21T04:42:28;7.88;;;4.13;;
69822;SDS011;57119;52.516;13.508;2022-08-21T04:44:54;9.07;;;4.30;;
69822;SDS011;57119;52.516;13.508;2022-08-21T04:47:21;8.13;;;3.63;;
69822;SDS011;57119;52.516;13.508;2022-08-21T04:49:47;9.57;;;3.73;;
69822;SDS011;57119;52.516;13.508;2022-08-21T04:52:13;9.18;;;3.33;;
69822;SDS011;57119;52.516;13.508;2022-08-21T04:54:41;7.38;;;3.38;;
69822;SDS011;57119;52.516;13.508;2022-08-21T04:57:08;8.80;;;4.07;;
69822;SDS011;57119;52.516;13.508;2022-08-21T04:59:39;7.45;;;3.10;;
69822;SDS011;57119;52.516;13.508;2022-08-21T05:02:07;10.07;;;3.50;;
69822;SDS011;57119;52.516;13.508;2022-08-21T05:04:34;11.05;;;3.88;;
69822;SDS011;57119;52.516;13.508;2022-08-21T05:07:04;9.13;;;3.70;;
69822;SDS011;57119;52.516;13.508;2022-08-21T05:09:31;9.50;;;3.63;;
69822;SDS011;57119;52.516;13.508;2022-08-21T05:11:58;8.50;;;3.45;;
69822;SDS011;57119;52.516;13.508;2022-08-21T05:14:25;8.30;;;3.27;;
69822;SDS011;57119;52.516;13.508;2022-08-21T05:16:52;8.43;;;3.55;;
69822;SDS011;57119;52.516;13.508;2022-08-21T05:19:17;7.63;;;3.67;;
69822;SDS011;57119;52.516;13.508;2022-08-21T05:21:43;10.43;;;4.00;;
69822;SDS011;57119;52.516;13.508;2022-08-21T05:24:10;12.17;;;3.23;;
69822;SDS011;57119;52.516;13.508;2022-08-21T05:26:36;8.10;;;3.00;;
69822;SDS011;57119;52.516;13.508;2022-08-21T05:29:02;8.52;;;3.38;;
69822;SDS011;57119;52.516;13.508;2022-08-21T05:31:28;7.75;;;3.30;;
69822;SDS011;57119;52.516;13.508;2022-08-21T05:33:54;7.90;;;3.50;;
69822;SDS011;57119;52.516;13.508;2022-08-21T05:36:19;8.90;;;3.13;;
69822;SDS011;57119;52.516;13.508;2022-08-21T05:38:45;9.17;;;3.10;;
69822;SDS011;57119;52.516;13.508;2022-08-21T05:41:10;9.07;;;3.60;;
69822;SDS011;57119;52.516;13.508;2022-08-21T05:43:36;12.90;;;2.87;;
69822;SDS011;57119;52.516;13.508;2022-08-21T05:46:05;10.67;;;3.30;;
69822;SDS011;57119;52.516;13.508;2022-08-21T05:48:31;8.65;;;3.35;;
69822;SDS011;57119;52.516;13.508;2022-08-21T05:50:57;9.85;;;3.05;;
69822;SDS011;57119;52.516;13.508;2022-08-21T05:53:28;7.18;;;2.80;;
69822;SDS011;57119;52.516;13.508;2022-08-21T05:55:54;5.93;;;2.67;;
69822;SDS011;57119;52.516;13.508;2022-08-21T05:58:20;8.37;;;2.97;;
69822;SDS011;57119;52.516;13.508;2022-08-21T06:00:48;6.57;;;2.80;;
69822;SDS011;57119;52.516;13.508;2022-08-21T06:03:16;10.25;;;2.90;;
69822;SDS011;57119;52.516;13.508;2022-08-21T06:05:43;7.37;;;2.90;;
69822;SDS011;57119;52.516;13.508;2022-08-21T06:08:10;8.30;;;3.13;;
69822;SDS011;57119;52.516;13.508;2022-08-21T06:10:35;9.35;;;3.15;;
69822;SDS011;57119;52.516;13.508;2022-08-21T06:13:01;8.67;;;2.80;;
69822;SDS011;57119;52.516;13.508;2022-08-21T06:15:26;9.63;;;3.40;;
69822;SDS011;57119;52.516;13.508;2022-08-21T06:17:52;10.97;;;2.77;;
69822;SDS011;57119;52.516;13.508;2022-08-21T06:20:19;9.10;;;2.33;;
69822;SDS011;57119;52.516;13.508;2022-08-21T06:22:45;8.02;;;3.08;;
69822;SDS011;57119;52.516;13.508;2022-08-21T06:25:11;12.50;;;2.40;;
69822;SDS011;57119;52.516;13.508;2022-08-21T06:27:36;8.20;;;2.70;;
69822;SDS011;57119;52.516;13.508;2022-08-21T06:30:02;9.63;;;2.75;;
69822;SDS011;57119;52.516;13.508;2022-08-21T06:32:30;6.90;;;2.50;;
69822;SDS011;57119;52.516;13.508;2022-08-21T06:34:55;8.32;;;1.98;;
69822;SDS011;57119;52.516;13.508;2022-08-21T06:37:21;9.20;;;2.27;;
69822;SDS011;57119;52.516;13.508;2022-08-21T06:39:47;6.15;;;2.15;;
69822;SDS011;57119;52.516;13.508;2022-08-21T06:42:13;6.23;;;2.30;;
69822;SDS011;57119;52.516;13.508;2022-08-21T06:44:42;9.20;;;2.70;;
69822;SDS011;57119;52.516;13.508;2022-08-21T06:47:08;8.38;;;2.50;;
69822;SDS011;57119;52.516;13.508;2022-08-21T06:49:33;5.90;;;2.00;;
69822;SDS011;57119;52.516;13.508;2022-08-21T06:51:59;7.60;;;2.50;;
69822;SDS011;57119;52.516;13.508;2022-08-21T06:54:25;8.90;;;2.38;;
69822;SDS011;57119;52.516;13.508;2022-08-21T06:56:51;8.63;;;2.60;;
69822;SDS011;57119;52.516;13.508;2022-08-21T06:59:16;6.93;;;2.40;;
69822;SDS011;57119;52.516;13.508;2022-08-21T07:01:41;5.93;;;2.17;;
69822;SDS011;57119;52.516;13.508;2022-08-21T07:04:07;7.80;;;3.10;;
69822;SDS011;57119;52.516;13.508;2022-08-21T07:06:32;7.10;;;2.57;;
69822;SDS011;57119;52.516;13.508;2022-08-21T07:08:58;8.93;;;2.57;;
69822;SDS011;57119;52.516;13.508;2022-08-21T07:13:25;6.90;;;2.40;;
69822;SDS011;57119;52.516;13.508;2022-08-21T07:15:51;6.13;;;2.22;;
69822;SDS011;57119;52.516;13.508;2022-08-21T07:18:17;5.53;;;2.17;;
69822;SDS011;57119;52.516;13.508;2022-08-21T07:20:42;7.85;;;2.00;;
69822;SDS011;57119;52.516;13.508;2022-08-21T07:23:09;6.47;;;2.03;;
69822;SDS011;57119;52.516;13.508;2022-08-21T07:25:41;9.15;;;2.65;;
69822;SDS011;57119;52.516;13.508;2022-08-21T07:28:06;7.70;;;2.33;;
69822;SDS011;57119;52.516;13.508;2022-08-21T07:30:31;8.33;;;2.83;;
69822;SDS011;57119;52.516;13.508;2022-08-21T07:32:57;6.30;;;2.37;;
69822;SDS011;57119;52.516;13.508;2022-08-21T07:35:22;6.73;;;2.33;;
69822;SDS011;57119;52.516;13.508;2022-08-21T07:37:48;6.18;;;2.50;;
69822;SDS011;57119;52.516;13.508;2022-08-21T07:40:16;6.30;;;2.55;;
69822;SDS011;57119;52.516;13.508;2022-08-21T07:42:44;6.90;;;2.33;;
69822;SDS011;57119;52.516;13.508;2022-08-21T07:45:12;9.98;;;2.58;;
69822;SDS011;57119;52.516;13.508;2022-08-21T07:47:39;6.25;;;2.28;;
69822;SDS011;57119;52.516;13.508;2022-08-21T07:50:05;5.83;;;2.40;;
69822;SDS011;57119;52.516;13.508;2022-08-21T07:52:32;5.80;;;2.28;;
69822;SDS011;57119;52.516;13.508;2022-08-21T07:54:58;7.78;;;2.47;;
69822;SDS011;57119;52.516;13.508;2022-08-21T07:57:24;5.35;;;2.08;;
69822;SDS011;57119;52.516;13.508;2022-08-21T07:59:49;7.23;;;2.63;;
69822;SDS011;57119;52.516;13.508;2022-08-21T08:02:25;6.63;;;2.37;;
69822;SDS011;57119;52.516;13.508;2022-08-21T08:04:51;7.13;;;2.60;;
69822;SDS011;57119;52.516;13.508;2022-08-21T08:07:17;8.67;;;2.50;;
69822;SDS011;57119;52.516;13.508;2022-08-21T08:09:42;6.78;;;2.28;;
69822;SDS011;57119;52.516;13.508;2022-08-21T08:12:08;6.43;;;2.10;;
69822;SDS011;57119;52.516;13.508;2022-08-21T08:14:34;6.05;;;1.83;;
69822;SDS011;57119;52.516;13.508;2022-08-21T08:17:00;7.10;;;2.13;;
69822;SDS011;57119;52.516;13.508;2022-08-21T08:19:27;5.77;;;1.80;;
69822;SDS011;57119;52.516;13.508;2022-08-21T08:21:52;8.50;;;2.40;;
69822;SDS011;57119;52.516;13.508;2022-08-21T08:24:18;6.47;;;2.67;;
69822;SDS011;57119;52.516;13.508;2022-08-21T08:26:43;9.57;;;3.67;;
69822;SDS011;57119;52.516;13.508;2022-08-21T08:29:09;5.72;;;2.83;;
69822;SDS011;57119;52.516;13.508;2022-08-21T08:31:34;7.50;;;3.00;;
69822;SDS011;57119;52.516;13.508;2022-08-21T08:33:59;7.10;;;2.63;;
69822;SDS011;57119;52.516;13.508;2022-08-21T08:36:31;8.53;;;2.50;;
69822;SDS011;57119;52.516;13.508;2022-08-21T08:39:00;6.68;;;2.78;;
69822;SDS011;57119;52.516;13.508;2022-08-21T08:41:26;7.15;;;2.28;;
69822;SDS011;57119;52.516;13.508;2022-08-21T08:45:10;7.93;;;2.70;;
69822;SDS011;57119;52.516;13.508;2022-08-21T08:47:38;9.00;;;2.30;;
69822;SDS011;57119;52.516;13.508;2022-08-21T08:50:09;8.52;;;2.53;;
69822;SDS011;57119;52.516;13.508;2022-08-21T08:52:48;6.50;;;2.25;;
69822;SDS011;57119;52.516;13.508;2022-08-21T08:55:23;7.35;;;2.15;;
69822;SDS011;57119;52.516;13.508;2022-08-21T08:57:57;7.67;;;2.33;;
69822;SDS011;57119;52.516;13.508;2022-08-21T09:00:23;7.40;;;2.50;;
69822;SDS011;57119;52.516;13.508;2022-08-21T09:02:51;7.73;;;2.60;;
69822;SDS011;57119;52.516;13.508;2022-08-21T09:05:23;12.52;;;2.70;;
69822;SDS011;57119;52.516;13.508;2022-08-21T09:10:35;6.18;;;2.40;;
69822;SDS011;57119;52.516;13.508;2022-08-21T09:18:56;6.28;;;2.70;;
69822;SDS011;57119;52.516;13.508;2022-08-21T09:21:31;7.00;;;2.38;;
69822;SDS011;57119;52.516;13.508;2022-08-21T09:27:02;7.10;;;2.58;;
69822;SDS011;57119;52.516;13.508;2022-08-21T09:29:35;6.10;;;2.50;;
69822;SDS011;57119;52.516;13.508;2022-08-21T09:32:09;8.43;;;2.60;;
69822;SDS011;57119;52.516;13.508;2022-08-21T09:35:00;6.97;;;2.20;;
69822;SDS011;57119;52.516;13.508;2022-08-21T09:37:30;5.70;;;2.40;;
69822;SDS011;57119;52.516;13.508;2022-08-21T09:39:57;6.10;;;2.90;;
69822;SDS011;57119;52.516;13.508;2022-08-21T09:42:25;6.07;;;2.40;;
69822;SDS011;57119;52.516;13.508;2022-08-21T09:45:09;6.35;;;1.92;;
69822;SDS011;57119;52.516;13.508;2022-08-21T09:47:37;7.88;;;2.03;;
69822;SDS011;57119;52.516;13.508;2022-08-21T09:50:35;9.63;;;3.03;;
69822;SDS011;57119;52.516;13.508;2022-08-21T09:52:56;8.07;;;2.65;;
69822;SDS011;57119;52.516;13.508;2022-08-21T09:55:30;6.55;;;2.75;;
69822;SDS011;57119;52.516;13.508;2022-08-21T09:58:18;6.63;;;2.53;;
69822;SDS011;57119;52.516;13.508;2022-08-21T10:00:44;6.22;;;2.25;;
69822;SDS011;57119;52.516;13.508;2022-08-21T10:03:21;5.20;;;2.23;;
69822;SDS011;57119;52.516;13.508;2022-08-21T10:05:54;5.80;;;2.42;;
69822;SDS011;57119;52.516;13.508;2022-08-21T10:08:25;6.53;;;2.63;;
69822;SDS011;57119;52.516;13.508;2022-08-21T10:10:57;6.18;;;2.40;;
69822;SDS011;57119;52.516;13.508;2022-08-21T10:13:57;6.30;;;2.50;;
69822;SDS011;57119;52.516;13.508;2022-08-21T10:16:47;6.45;;;2.92;;
69822;SDS011;57119;52.516;13.508;2022-08-21T10:19:35;8.38;;;2.72;;
69822;SDS011;57119;52.516;13.508;2022-08-21T10:22:22;6.35;;;2.45;;
69822;SDS011;57119;52.516;13.508;2022-08-21T10:25:05;8.60;;;2.50;;
69822;SDS011;57119;52.516;13.508;2022-08-21T10:27:53;6.10;;;2.50;;
69822;SDS011;57119;52.516;13.508;2022-08-21T10:47:25;7.55;;;2.88;;
69822;SDS011;57119;52.516;13.508;2022-08-21T10:50:07;8.10;;;2.78;;
69822;SDS011;57119;52.516;13.508;2022-08-21T10:52:52;7.45;;;2.78;;
69822;SDS011;57119;52.516;13.508;2022-08-21T10:55:41;7.40;;;3.00;;
69822;SDS011;57119;52.516;13.508;2022-08-21T10:58:12;7.47;;;3.53;;
69822;SDS011;57119;52.516;13.508;2022-08-21T11:00:46;7.07;;;2.63;;
69822;SDS011;57119;52.516;13.508;2022-08-21T11:03:21;6.53;;;2.65;;
69822;SDS011;57119;52.516;13.508;2022-08-21T11:05:55;5.53;;;2.50;;
69822;SDS011;57119;52.516;13.508;2022-08-21T11:08:28;7.33;;;3.10;;
69822;SDS011;57119;52.516;13.508;2022-08-21T11:11:06;7.00;;;3.55;;
69822;SDS011;57119;52.516;13.508;2022-08-21T11:16:07;6.28;;;3.97;;
69822;SDS011;57119;52.516;13.508;2022-08-21T11:19:40;6.35;;;3.10;;
69822;SDS011;57119;52.516;13.508;2022-08-21T11:27:36;7.13;;;3.45;;
69822;SDS011;57119;52.516;13.508;2022-08-21T11:30:08;5.95;;;2.47;;
69822;SDS011;57119;52.516;13.508;2022-08-21T11:32:39;7.15;;;3.42;;
69822;SDS011;57119;52.516;13.508;2022-08-21T11:38:04;6.77;;;2.43;;
69822;SDS011;57119;52.516;13.508;2022-08-21T11:43:34;6.75;;;3.38;;
69822;SDS011;57119;52.516;13.508;2022-08-21T11:48:56;7.97;;;2.88;;
69822;SDS011;57119;52.516;13.508;2022-08-21T11:51:34;6.13;;;3.33;;
69822;SDS011;57119;52.516;13.508;2022-08-21T11:54:21;8.10;;;3.05;;
69822;SDS011;57119;52.516;13.508;2022-08-21T11:57:04;7.05;;;3.28;;
69822;SDS011;57119;52.516;13.508;2022-08-21T12:02:46;7.28;;;4.55;;
69822;SDS011;57119;52.516;13.508;2022-08-21T12:08:00;6.83;;;3.20;;
69822;SDS011;57119;52.516;13.508;2022-08-21T12:10:38;7.07;;;3.37;;
69822;SDS011;57119;52.516;13.508;2022-08-21T12:13:22;5.15;;;3.42;;
69822;SDS011;57119;52.516;13.508;2022-08-21T12:15:51;6.22;;;3.38;;
69822;SDS011;57119;52.516;13.508;2022-08-21T12:18:29;5.63;;;3.50;;
69822;SDS011;57119;52.516;13.508;2022-08-21T12:21:03;6.38;;;3.92;;
69822;SDS011;57119;52.516;13.508;2022-08-21T12:23:48;7.47;;;4.45;;
69822;SDS011;57119;52.516;13.508;2022-08-21T12:26:35;8.60;;;5.00;;
69822;SDS011;57119;52.516;13.508;2022-08-21T12:29:14;6.13;;;3.65;;
69822;SDS011;57119;52.516;13.508;2022-08-21T12:31:53;5.25;;;3.50;;
69822;SDS011;57119;52.516;13.508;2022-08-21T12:34:35;5.80;;;4.03;;
69822;SDS011;57119;52.516;13.508;2022-08-21T12:37:37;6.50;;;4.67;;
69822;SDS011;57119;52.516;13.508;2022-08-21T12:40:05;6.25;;;4.05;;
69822;SDS011;57119;52.516;13.508;2022-08-21T12:42:38;5.75;;;4.47;;
69822;SDS011;57119;52.516;13.508;2022-08-21T12:45:52;8.30;;;4.20;;
69822;SDS011;57119;52.516;13.508;2022-08-21T12:47:56;6.55;;;4.93;;
69822;SDS011;57119;52.516;13.508;2022-08-21T12:53:25;5.60;;;4.43;;
69822;SDS011;57119;52.516;13.508;2022-08-21T12:55:51;7.18;;;4.57;;
69822;SDS011;57119;52.516;13.508;2022-08-21T12:58:21;5.87;;;4.40;;
69822;SDS011;57119;52.516;13.508;2022-08-21T13:03:50;5.97;;;4.45;;
69822;SDS011;57119;52.516;13.508;2022-08-21T13:06:18;6.45;;;4.32;;
69822;SDS011;57119;52.516;13.508;2022-08-21T13:08:46;5.68;;;4.18;;
69822;SDS011;57119;52.516;13.508;2022-08-21T13:11:14;5.30;;;4.22;;
69822;SDS011;57119;52.516;13.508;2022-08-21T13:13:42;6.27;;;4.07;;
69822;SDS011;57119;52.516;13.508;2022-08-21T13:16:08;5.87;;;4.47;;
69822;SDS011;57119;52.516;13.508;2022-08-21T13:18:35;6.00;;;4.10;;
69822;SDS011;57119;52.516;13.508;2022-08-21T13:21:14;5.28;;;3.33;;
69822;SDS011;57119;52.516;13.508;2022-08-21T13:23:40;6.30;;;3.63;;
69822;SDS011;57119;52.516;13.508;2022-08-21T13:26:13;5.55;;;3.85;;
69822;SDS011;57119;52.516;13.508;2022-08-21T13:28:43;6.47;;;3.60;;
69822;SDS011;57119;52.516;13.508;2022-08-21T13:31:12;5.45;;;3.17;;
69822;SDS011;57119;52.516;13.508;2022-08-21T13:33:41;6.20;;;4.32;;
69822;SDS011;57119;52.516;13.508;2022-08-21T13:39:06;5.67;;;4.27;;
69822;SDS011;57119;52.516;13.508;2022-08-21T13:41:34;5.20;;;3.33;;
69822;SDS011;57119;52.516;13.508;2022-08-21T13:44:12;6.60;;;3.95;;
69822;SDS011;57119;52.516;13.508;2022-08-21T13:46:44;6.05;;;4.80;;
69822;SDS011;57119;52.516;13.508;2022-08-21T13:49:10;6.20;;;5.60;;
69822;SDS011;57119;52.516;13.508;2022-08-21T13:51:39;6.90;;;4.53;;
69822;SDS011;57119;52.516;13.508;2022-08-21T13:54:23;6.43;;;4.50;;
69822;SDS011;57119;52.516;13.508;2022-08-21T13:56:51;6.93;;;4.80;;
69822;SDS011;57119;52.516;13.508;2022-08-21T13:59:34;6.20;;;2.55;;
69822;SDS011;57119;52.516;13.508;2022-08-21T14:02:19;7.13;;;4.63;;
69822;SDS011;57119;52.516;13.508;2022-08-21T14:04:54;5.82;;;3.40;;
69822;SDS011;57119;52.516;13.508;2022-08-21T14:07:28;7.53;;;4.32;;
69822;SDS011;57119;52.516;13.508;2022-08-21T14:09:56;5.93;;;3.13;;
69822;SDS011;57119;52.516;13.508;2022-08-21T14:12:28;6.10;;;3.10;;
69822;SDS011;57119;52.516;13.508;2022-08-21T14:14:56;5.05;;;2.05;;
69822;SDS011;57119;52.516;13.508;2022-08-21T14:17:32;4.78;;;2.90;;
69822;SDS011;57119;52.516;13.508;2022-08-21T14:20:02;6.30;;;2.58;;
69822;SDS011;57119;52.516;13.508;2022-08-21T14:22:39;5.93;;;2.72;;
69822;SDS011;57119;52.516;13.508;2022-08-21T14:25:09;6.10;;;2.97;;
69822;SDS011;57119;52.516;13.508;2022-08-21T14:27:43;5.87;;;2.60;;
69822;SDS011;57119;52.516;13.508;2022-08-21T14:30:31;5.43;;;2.70;;
69822;SDS011;57119;52.516;13.508;2022-08-21T14:32:59;6.47;;;2.53;;
69822;SDS011;57119;52.516;13.508;2022-08-21T14:35:25;5.57;;;2.20;;
69822;SDS011;57119;52.516;13.508;2022-08-21T14:37:51;4.93;;;2.47;;
69822;SDS011;57119;52.516;13.508;2022-08-21T14:40:18;6.68;;;2.40;;
69822;SDS011;57119;52.516;13.508;2022-08-21T14:42:44;4.68;;;2.10;;
69822;SDS011;57119;52.516;13.508;2022-08-21T14:45:14;4.75;;;2.10;;
69822;SDS011;57119;52.516;13.508;2022-08-21T14:47:42;5.90;;;2.13;;
69822;SDS011;57119;52.516;13.508;2022-08-21T14:50:08;6.67;;;2.47;;
69822;SDS011;57119;52.516;13.508;2022-08-21T14:52:33;5.72;;;2.45;;
69822;SDS011;57119;52.516;13.508;2022-08-21T14:54:59;5.77;;;2.30;;
69822;SDS011;57119;52.516;13.508;2022-08-21T14:57:24;4.70;;;2.20;;
69822;SDS011;57119;52.516;13.508;2022-08-21T14:59:52;6.10;;;2.10;;
69822;SDS011;57119;52.516;13.508;2022-08-21T15:02:17;6.40;;;2.10;;
69822;SDS011;57119;52.516;13.508;2022-08-21T15:04:42;7.40;;;2.90;;
69822;SDS011;57119;52.516;13.508;2022-08-21T15:07:08;7.68;;;2.80;;
69822;SDS011;57119;52.516;13.508;2022-08-21T15:09:33;5.60;;;2.40;;
69822;SDS011;57119;52.516;13.508;2022-08-21T15:11:59;6.50;;;2.40;;
69822;SDS011;57119;52.516;13.508;2022-08-21T15:14:27;5.90;;;2.35;;
69822;SDS011;57119;52.516;13.508;2022-08-21T15:16:54;6.33;;;2.50;;
69822;SDS011;57119;52.516;13.508;2022-08-21T15:19:20;6.65;;;2.53;;
69822;SDS011;57119;52.516;13.508;2022-08-21T15:21:45;6.10;;;2.53;;
69822;SDS011;57119;52.516;13.508;2022-08-21T15:24:11;6.20;;;2.63;;
69822;SDS011;57119;52.516;13.508;2022-08-21T15:26:36;8.10;;;2.80;;
69822;SDS011;57119;52.516;13.508;2022-08-21T15:29:02;5.03;;;1.90;;
69822;SDS011;57119;52.516;13.508;2022-08-21T15:31:30;5.72;;;2.20;;
69822;SDS011;57119;52.516;13.508;2022-08-21T15:33:55;5.30;;;2.30;;
69822;SDS011;57119;52.516;13.508;2022-08-21T15:36:21;6.10;;;2.60;;
69822;SDS011;57119;52.516;13.508;2022-08-21T15:38:46;5.77;;;2.30;;
69822;SDS011;57119;52.516;13.508;2022-08-21T15:41:11;5.75;;;2.80;;
69822;SDS011;57119;52.516;13.508;2022-08-21T15:43:48;6.13;;;2.57;;
69822;SDS011;57119;52.516;13.508;2022-08-21T15:46:15;5.30;;;2.58;;